sensor_id;sensor_type;location;lat;lon;timestamp;pressure;altitude;pressure_sealevel;temperature;humidity
48668;BME280;34453;52.198;5.004;2022-08-19T00:02:02;101560.22;;;18.41;100.00
48668;BME280;34453;52.198;5.004;2022-08-19T00:04:31;101555.53;;;18.43;100.00
48668;BME280;34453;52.198;5.004;2022-08-19T00:06:58;101545.78;;;18.43;100.00
48668;BME280;34453;52.198;5.004;2022-08-19T00:09:24;101546.66;;;18.36;100.00
48668;BME280;34453;52.198;5.004;2022-08-19T00:11:50;101547.38;;;18.30;100.00
48668;BME280;34453;52.198;5.004;2022-08-19T00:14:22;101540.16;;;18.15;100.00
48668;BME280;34453;52.198;5.004;2022-08-19T00:16:48;101540.69;;;18.02;100.00
48668;BME280;34453;52.198;5.004;2022-08-19T00:19:15;101543.53;;;18.01;100.00
48668;BME280;34453;52.198;5.004;2022-08-19T00:21:41;101559.06;;;18.04;100.00
48668;BME280;34453;52.198;5.004;2022-08-19T00:24:09;101554.72;;;18.11;100.00
48668;BME280;34453;52.198;5.004;2022-08-19T00:26:36;101555.34;;;18.21;100.00
48668;BME280;34453;52.198;5.004;2022-08-19T00:29:04;101567.25;;;18.26;100.00
48668;BME280;34453;52.198;5.004;2022-08-19T00:31:30;101557.72;;;18.16;100.00
48668;BME280;34453;52.198;5.004;2022-08-19T00:33:56;101549.13;;;18.06;100.00
48668;BME280;34453;52.198;5.004;2022-08-19T00:36:22;101546.72;;;17.96;100.00
48668;BME280;34453;52.198;5.004;2022-08-19T00:38:47;101540.94;;;17.93;100.00
48668;BME280;34453;52.198;5.004;2022-08-19T00:41:15;101539.75;;;17.95;100.00
48668;BME280;34453;52.198;5.004;2022-08-19T00:43:42;101533.63;;;17.95;100.00
48668;BME280;34453;52.198;5.004;2022-08-19T00:46:08;101534.59;;;18.02;100.00
48668;BME280;34453;52.198;5.004;2022-08-19T00:48:34;101530.75;;;18.05;100.00
48668;BME280;34453;52.198;5.004;2022-08-19T00:51:01;101539.19;;;18.08;100.00
48668;BME280;34453;52.198;5.004;2022-08-19T00:53:30;101531.56;;;18.13;100.00
48668;BME280;34453;52.198;5.004;2022-08-19T00:55:59;101539.78;;;18.18;100.00
48668;BME280;34453;52.198;5.004;2022-08-19T00:58:27;101542.75;;;18.23;100.00
48668;BME280;34453;52.198;5.004;2022-08-19T01:00:54;101539.09;;;18.25;100.00
48668;BME280;34453;52.198;5.004;2022-08-19T01:03:20;101543.09;;;18.20;100.00
48668;BME280;34453;52.198;5.004;2022-08-19T01:05:47;101545.59;;;18.14;100.00
48668;BME280;34453;52.198;5.004;2022-08-19T01:08:15;101546.88;;;17.95;100.00
48668;BME280;34453;52.198;5.004;2022-08-19T01:10:45;101552.34;;;17.93;100.00
48668;BME280;34453;52.198;5.004;2022-08-19T01:13:15;101551.72;;;17.83;100.00
48668;BME280;34453;52.198;5.004;2022-08-19T01:16:02;101551.03;;;17.81;100.00
48668;BME280;34453;52.198;5.004;2022-08-19T01:18:29;101546.25;;;17.85;100.00
48668;BME280;34453;52.198;5.004;2022-08-19T01:20:58;101555.50;;;17.89;100.00
48668;BME280;34453;52.198;5.004;2022-08-19T01:23:27;101542.91;;;17.91;100.00
48668;BME280;34453;52.198;5.004;2022-08-19T01:26:12;101546.88;;;17.95;100.00
48668;BME280;34453;52.198;5.004;2022-08-19T01:28:38;101545.22;;;17.94;100.00
48668;BME280;34453;52.198;5.004;2022-08-19T01:31:06;101537.78;;;17.89;100.00
48668;BME280;34453;52.198;5.004;2022-08-19T01:33:31;101537.66;;;17.74;100.00
48668;BME280;34453;52.198;5.004;2022-08-19T01:36:09;101539.31;;;17.75;100.00
48668;BME280;34453;52.198;5.004;2022-08-19T01:38:37;101553.56;;;17.74;100.00
48668;BME280;34453;52.198;5.004;2022-08-19T01:41:04;101546.59;;;17.73;100.00
48668;BME280;34453;52.198;5.004;2022-08-19T01:43:31;101542.63;;;17.69;100.00
48668;BME280;34453;52.198;5.004;2022-08-19T01:45:56;101560.34;;;17.69;100.00
48668;BME280;34453;52.198;5.004;2022-08-19T01:48:22;101557.66;;;17.77;100.00
48668;BME280;34453;52.198;5.004;2022-08-19T01:50:48;101559.97;;;17.80;100.00
48668;BME280;34453;52.198;5.004;2022-08-19T01:53:14;101561.47;;;17.83;100.00
48668;BME280;34453;52.198;5.004;2022-08-19T01:55:41;101551.22;;;17.79;100.00
48668;BME280;34453;52.198;5.004;2022-08-19T01:58:17;101548.91;;;17.76;100.00
48668;BME280;34453;52.198;5.004;2022-08-19T02:00:44;101550.09;;;17.66;100.00
48668;BME280;34453;52.198;5.004;2022-08-19T02:03:10;101549.97;;;17.59;100.00
48668;BME280;34453;52.198;5.004;2022-08-19T02:05:37;101552.63;;;17.51;100.00
48668;BME280;34453;52.198;5.004;2022-08-19T02:08:03;101549.63;;;17.54;100.00
48668;BME280;34453;52.198;5.004;2022-08-19T02:10:29;101556.09;;;17.51;100.00
48668;BME280;34453;52.198;5.004;2022-08-19T02:12:54;101563.53;;;17.48;100.00
48668;BME280;34453;52.198;5.004;2022-08-19T02:15:20;101557.59;;;17.46;100.00
48668;BME280;34453;52.198;5.004;2022-08-19T02:17:46;101558.56;;;17.45;100.00
48668;BME280;34453;52.198;5.004;2022-08-19T02:20:13;101570.66;;;17.39;100.00
48668;BME280;34453;52.198;5.004;2022-08-19T02:22:40;101563.25;;;17.34;100.00
48668;BME280;34453;52.198;5.004;2022-08-19T02:25:08;101567.69;;;17.34;100.00
48668;BME280;34453;52.198;5.004;2022-08-19T02:27:34;101561.88;;;17.38;100.00
48668;BME280;34453;52.198;5.004;2022-08-19T02:29:59;101551.00;;;17.42;100.00
48668;BME280;34453;52.198;5.004;2022-08-19T02:32:26;101549.97;;;17.51;100.00
48668;BME280;34453;52.198;5.004;2022-08-19T02:34:51;101550.13;;;17.57;100.00
48668;BME280;34453;52.198;5.004;2022-08-19T02:37:16;101550.44;;;17.63;100.00
48668;BME280;34453;52.198;5.004;2022-08-19T02:40:01;101559.53;;;17.68;100.00
48668;BME280;34453;52.198;5.004;2022-08-19T02:42:26;101555.88;;;17.69;100.00
48668;BME280;34453;52.198;5.004;2022-08-19T02:44:52;101558.34;;;17.71;100.00
48668;BME280;34453;52.198;5.004;2022-08-19T02:47:18;101554.22;;;17.68;100.00
48668;BME280;34453;52.198;5.004;2022-08-19T02:49:45;101551.41;;;17.70;100.00
48668;BME280;34453;52.198;5.004;2022-08-19T02:52:11;101546.94;;;17.70;100.00
48668;BME280;34453;52.198;5.004;2022-08-19T02:54:37;101546.59;;;17.73;100.00
48668;BME280;34453;52.198;5.004;2022-08-19T02:57:04;101543.78;;;17.75;100.00
48668;BME280;34453;52.198;5.004;2022-08-19T02:59:30;101545.59;;;17.74;100.00
48668;BME280;34453;52.198;5.004;2022-08-19T03:01:55;101544.47;;;17.69;100.00
48668;BME280;34453;52.198;5.004;2022-08-19T03:04:21;101542.69;;;17.61;100.00
48668;BME280;34453;52.198;5.004;2022-08-19T03:06:48;101531.47;;;17.51;100.00
48668;BME280;34453;52.198;5.004;2022-08-19T03:09:14;101536.72;;;17.59;100.00
48668;BME280;34453;52.198;5.004;2022-08-19T03:11:40;101544.81;;;17.66;100.00
48668;BME280;34453;52.198;5.004;2022-08-19T03:14:07;101541.81;;;17.69;100.00
48668;BME280;34453;52.198;5.004;2022-08-19T03:16:39;101532.69;;;17.71;100.00
48668;BME280;34453;52.198;5.004;2022-08-19T03:19:05;101528.06;;;17.73;100.00
48668;BME280;34453;52.198;5.004;2022-08-19T03:21:32;101528.72;;;17.75;100.00
48668;BME280;34453;52.198;5.004;2022-08-19T03:24:03;101526.06;;;17.75;100.00
48668;BME280;34453;52.198;5.004;2022-08-19T03:26:30;101523.06;;;17.78;100.00
48668;BME280;34453;52.198;5.004;2022-08-19T03:28:56;101518.31;;;17.82;100.00
48668;BME280;34453;52.198;5.004;2022-08-19T03:31:22;101509.03;;;17.86;100.00
48668;BME280;34453;52.198;5.004;2022-08-19T03:33:49;101502.91;;;17.86;100.00
48668;BME280;34453;52.198;5.004;2022-08-19T03:36:21;101509.84;;;17.87;100.00
48668;BME280;34453;52.198;5.004;2022-08-19T03:38:54;101515.50;;;17.84;100.00
48668;BME280;34453;52.198;5.004;2022-08-19T03:41:31;101518.78;;;17.77;100.00
48668;BME280;34453;52.198;5.004;2022-08-19T03:43:58;101515.34;;;17.77;100.00
48668;BME280;34453;52.198;5.004;2022-08-19T03:46:27;101513.00;;;17.82;100.00
48668;BME280;34453;52.198;5.004;2022-08-19T03:48:54;101516.47;;;17.83;100.00
48668;BME280;34453;52.198;5.004;2022-08-19T03:51:31;101522.63;;;17.83;100.00
48668;BME280;34453;52.198;5.004;2022-08-19T03:53:58;101519.44;;;17.79;100.00
48668;BME280;34453;52.198;5.004;2022-08-19T03:56:25;101527.09;;;17.74;100.00
48668;BME280;34453;52.198;5.004;2022-08-19T03:58:51;101532.03;;;17.69;100.00
48668;BME280;34453;52.198;5.004;2022-08-19T04:01:19;101521.59;;;17.76;100.00
48668;BME280;34453;52.198;5.004;2022-08-19T04:03:45;101529.72;;;17.83;100.00
48668;BME280;34453;52.198;5.004;2022-08-19T04:06:18;101532.19;;;17.84;100.00
48668;BME280;34453;52.198;5.004;2022-08-19T04:08:46;101526.38;;;17.80;100.00
48668;BME280;34453;52.198;5.004;2022-08-19T04:11:14;101532.03;;;17.77;100.00
48668;BME280;34453;52.198;5.004;2022-08-19T04:13:41;101527.09;;;17.74;100.00
48668;BME280;34453;52.198;5.004;2022-08-19T04:16:08;101518.94;;;17.76;100.00
48668;BME280;34453;52.198;5.004;2022-08-19T04:18:37;101525.25;;;17.75;100.00
48668;BME280;34453;52.198;5.004;2022-08-19T04:21:04;101515.84;;;17.72;100.00
48668;BME280;34453;52.198;5.004;2022-08-19T04:23:30;101529.41;;;17.69;100.00
48668;BME280;34453;52.198;5.004;2022-08-19T04:25:56;101533.72;;;17.62;100.00
48668;BME280;34453;52.198;5.004;2022-08-19T04:28:21;101529.75;;;17.66;100.00
48668;BME280;34453;52.198;5.004;2022-08-19T04:30:51;101532.03;;;17.69;100.00
48668;BME280;34453;52.198;5.004;2022-08-19T04:33:22;101530.56;;;17.67;100.00
48668;BME280;34453;52.198;5.004;2022-08-19T04:35:49;101528.78;;;17.59;100.00
48668;BME280;34453;52.198;5.004;2022-08-19T04:38:18;101527.78;;;17.60;100.00
48668;BME280;34453;52.198;5.004;2022-08-19T04:40:45;101524.97;;;17.61;100.00
48668;BME280;34453;52.198;5.004;2022-08-19T04:43:31;101524.66;;;17.56;100.00
48668;BME280;34453;52.198;5.004;2022-08-19T04:45:57;101530.78;;;17.57;100.00
48668;BME280;34453;52.198;5.004;2022-08-19T04:48:23;101518.53;;;17.56;100.00
48668;BME280;34453;52.198;5.004;2022-08-19T04:50:56;101533.06;;;17.60;100.00
48668;BME280;34453;52.198;5.004;2022-08-19T04:53:26;101531.44;;;17.59;100.00
48668;BME280;34453;52.198;5.004;2022-08-19T04:55:57;101541.16;;;17.67;100.00
48668;BME280;34453;52.198;5.004;2022-08-19T04:58:27;101543.47;;;17.70;100.00
48668;BME280;34453;52.198;5.004;2022-08-19T05:00:53;101549.25;;;17.65;100.00
48668;BME280;34453;52.198;5.004;2022-08-19T05:03:19;101547.94;;;17.69;100.00
48668;BME280;34453;52.198;5.004;2022-08-19T05:05:46;101548.78;;;17.70;100.00
48668;BME280;34453;52.198;5.004;2022-08-19T05:08:17;101548.94;;;17.68;100.00
48668;BME280;34453;52.198;5.004;2022-08-19T05:10:47;101555.88;;;17.69;100.00
48668;BME280;34453;52.198;5.004;2022-08-19T05:13:14;101555.53;;;17.72;100.00
48668;BME280;34453;52.198;5.004;2022-08-19T05:15:40;101567.44;;;17.76;100.00
48668;BME280;34453;52.198;5.004;2022-08-19T05:18:06;101564.59;;;17.78;100.00
48668;BME280;34453;52.198;5.004;2022-08-19T05:20:50;101563.13;;;17.84;100.00
48668;BME280;34453;52.198;5.004;2022-08-19T05:23:33;101567.09;;;17.79;100.00
48668;BME280;34453;52.198;5.004;2022-08-19T05:25:59;101574.22;;;17.79;100.00
48668;BME280;34453;52.198;5.004;2022-08-19T05:28:26;101558.84;;;17.74;100.00
48668;BME280;34453;52.198;5.004;2022-08-19T05:30:53;101561.63;;;17.81;100.00
48668;BME280;34453;52.198;5.004;2022-08-19T05:33:21;101557.19;;;17.81;100.00
48668;BME280;34453;52.198;5.004;2022-08-19T05:35:47;101555.84;;;17.86;100.00
48668;BME280;34453;52.198;5.004;2022-08-19T05:38:15;101545.44;;;17.84;100.00
48668;BME280;34453;52.198;5.004;2022-08-19T05:40:41;101551.38;;;17.86;100.00
48668;BME280;34453;52.198;5.004;2022-08-19T05:43:07;101555.50;;;17.89;100.00
48668;BME280;34453;52.198;5.004;2022-08-19T05:45:38;101542.78;;;17.84;100.00
48668;BME280;34453;52.198;5.004;2022-08-19T05:48:03;101552.69;;;17.90;100.00
48668;BME280;34453;52.198;5.004;2022-08-19T05:50:29;101552.81;;;17.97;100.00
48668;BME280;34453;52.198;5.004;2022-08-19T05:52:55;101558.94;;;17.97;100.00
48668;BME280;34453;52.198;5.004;2022-08-19T05:55:20;101562.91;;;17.93;100.00
48668;BME280;34453;52.198;5.004;2022-08-19T05:57:46;101554.94;;;18.01;100.00
48668;BME280;34453;52.198;5.004;2022-08-19T06:00:12;101554.47;;;17.98;100.00
48668;BME280;34453;52.198;5.004;2022-08-19T06:02:39;101557.75;;;18.00;100.00
48668;BME280;34453;52.198;5.004;2022-08-19T06:05:06;101550.03;;;17.90;100.00
48668;BME280;34453;52.198;5.004;2022-08-19T06:07:38;101556.59;;;18.02;100.00
48668;BME280;34453;52.198;5.004;2022-08-19T06:10:07;101554.13;;;18.01;100.00
48668;BME280;34453;52.198;5.004;2022-08-19T06:12:34;101557.72;;;18.08;100.00
48668;BME280;34453;52.198;5.004;2022-08-19T06:15:07;101554.69;;;18.19;100.00
48668;BME280;34453;52.198;5.004;2022-08-19T06:17:33;101553.38;;;18.15;100.00
48668;BME280;34453;52.198;5.004;2022-08-19T06:20:00;101557.88;;;18.15;100.00
48668;BME280;34453;52.198;5.004;2022-08-19T06:22:27;101557.50;;;18.18;100.00
48668;BME280;34453;52.198;5.004;2022-08-19T06:24:54;101559.34;;;18.17;100.00
48668;BME280;34453;52.198;5.004;2022-08-19T06:27:20;101548.88;;;18.24;100.00
48668;BME280;34453;52.198;5.004;2022-08-19T06:29:46;101546.06;;;18.26;100.00
48668;BME280;34453;52.198;5.004;2022-08-19T06:32:14;101546.34;;;18.31;100.00
48668;BME280;34453;52.198;5.004;2022-08-19T06:34:41;101541.00;;;18.39;100.00
48668;BME280;34453;52.198;5.004;2022-08-19T06:37:07;101543.94;;;18.44;100.00
48668;BME280;34453;52.198;5.004;2022-08-19T06:39:35;101530.72;;;18.44;100.00
48668;BME280;34453;52.198;5.004;2022-08-19T06:42:04;101544.88;;;18.51;100.00
48668;BME280;34453;52.198;5.004;2022-08-19T06:44:34;101540.06;;;18.55;100.00
48668;BME280;34453;52.198;5.004;2022-08-19T06:47:06;101553.78;;;18.58;100.00
48668;BME280;34453;52.198;5.004;2022-08-19T06:49:33;101555.59;;;18.58;100.00
48668;BME280;34453;52.198;5.004;2022-08-19T06:51:59;101552.91;;;18.66;100.00
48668;BME280;34453;52.198;5.004;2022-08-19T06:54:25;101557.56;;;18.64;100.00
48668;BME280;34453;52.198;5.004;2022-08-19T06:56:51;101559.31;;;18.72;100.00
48668;BME280;34453;52.198;5.004;2022-08-19T06:59:19;101561.16;;;18.71;100.00
48668;BME280;34453;52.198;5.004;2022-08-19T07:01:53;101565.59;;;18.79;100.00
48668;BME280;34453;52.198;5.004;2022-08-19T07:04:21;101571.28;;;18.68;100.00
48668;BME280;34453;52.198;5.004;2022-08-19T07:06:49;101571.06;;;18.77;100.00
48668;BME280;34453;52.198;5.004;2022-08-19T07:09:16;101577.41;;;18.68;100.00
48668;BME280;34453;52.198;5.004;2022-08-19T07:11:47;101575.03;;;18.73;100.00
48668;BME280;34453;52.198;5.004;2022-08-19T07:14:15;101569.06;;;18.79;100.00
48668;BME280;34453;52.198;5.004;2022-08-19T07:16:44;101574.53;;;18.78;100.00
48668;BME280;34453;52.198;5.004;2022-08-19T07:19:11;101577.31;;;18.84;100.00
48668;BME280;34453;52.198;5.004;2022-08-19T07:21:37;101573.34;;;19.03;100.00
48668;BME280;34453;52.198;5.004;2022-08-19T07:24:03;101576.13;;;19.10;100.00
48668;BME280;34453;52.198;5.004;2022-08-19T07:26:31;101565.69;;;19.09;100.00
48668;BME280;34453;52.198;5.004;2022-08-19T07:28:58;101562.66;;;19.12;100.00
48668;BME280;34453;52.198;5.004;2022-08-19T07:31:26;101566.91;;;19.21;100.00
48668;BME280;34453;52.198;5.004;2022-08-19T07:33:54;101563.81;;;19.32;100.00
48668;BME280;34453;52.198;5.004;2022-08-19T07:36:27;101570.03;;;19.39;100.00
48668;BME280;34453;52.198;5.004;2022-08-19T07:38:58;101564.09;;;19.37;100.00
48668;BME280;34453;52.198;5.004;2022-08-19T07:41:25;101566.03;;;19.43;100.00
48668;BME280;34453;52.198;5.004;2022-08-19T07:43:51;101561.25;;;19.54;100.00
48668;BME280;34453;52.198;5.004;2022-08-19T07:46:18;101573.22;;;19.50;100.00
48668;BME280;34453;52.198;5.004;2022-08-19T07:48:46;101564.38;;;19.57;100.00
48668;BME280;34453;52.198;5.004;2022-08-19T07:51:14;101567.28;;;19.62;100.00
48668;BME280;34453;52.198;5.004;2022-08-19T07:53:41;101564.63;;;19.62;100.00
48668;BME280;34453;52.198;5.004;2022-08-19T07:56:06;101573.28;;;19.79;100.00
48668;BME280;34453;52.198;5.004;2022-08-19T07:58:37;101573.16;;;19.87;100.00
48668;BME280;34453;52.198;5.004;2022-08-19T08:01:04;101579.03;;;19.98;100.00
48668;BME280;34453;52.198;5.004;2022-08-19T08:03:30;101572.88;;;19.97;100.00
48668;BME280;34453;52.198;5.004;2022-08-19T08:06:15;101580.00;;;20.12;100.00
48668;BME280;34453;52.198;5.004;2022-08-19T08:09:02;101580.06;;;20.18;100.00
48668;BME280;34453;52.198;5.004;2022-08-19T08:11:47;101584.03;;;20.07;100.00
48668;BME280;34453;52.198;5.004;2022-08-19T08:14:28;101580.63;;;20.14;100.00
48668;BME280;34453;52.198;5.004;2022-08-19T08:16:54;101590.34;;;20.21;100.00
48668;BME280;34453;52.198;5.004;2022-08-19T08:19:21;101586.56;;;20.31;100.00
48668;BME280;34453;52.198;5.004;2022-08-19T08:21:48;101585.38;;;20.33;100.00
48668;BME280;34453;52.198;5.004;2022-08-19T08:24:14;101580.22;;;20.32;100.00
48668;BME280;34453;52.198;5.004;2022-08-19T08:26:40;101579.03;;;20.34;100.00
48668;BME280;34453;52.198;5.004;2022-08-19T08:29:07;101589.38;;;20.44;100.00
48668;BME280;34453;52.198;5.004;2022-08-19T08:31:37;101581.22;;;20.45;100.00
48668;BME280;34453;52.198;5.004;2022-08-19T08:34:03;101591.91;;;20.52;100.00
48668;BME280;34453;52.198;5.004;2022-08-19T08:36:28;101590.50;;;20.56;100.00
48668;BME280;34453;52.198;5.004;2022-08-19T08:38:54;101584.94;;;20.66;100.00
48668;BME280;34453;52.198;5.004;2022-08-19T08:44:15;101590.66;;;20.69;100.00
48668;BME280;34453;52.198;5.004;2022-08-19T08:46:49;101591.06;;;20.88;100.00
48668;BME280;34453;52.198;5.004;2022-08-19T08:49:40;101590.16;;;21.02;100.00
48668;BME280;34453;52.198;5.004;2022-08-19T08:52:11;101590.72;;;21.19;100.00
48668;BME280;34453;52.198;5.004;2022-08-19T08:54:44;101581.13;;;21.25;100.00
48668;BME280;34453;52.198;5.004;2022-08-19T08:57:26;101575.56;;;21.20;100.00
48668;BME280;34453;52.198;5.004;2022-08-19T08:59:54;101578.84;;;21.43;100.00
48668;BME280;34453;52.198;5.004;2022-08-19T09:02:21;101586.28;;;21.55;100.00
48668;BME280;34453;52.198;5.004;2022-08-19T09:04:47;101594.97;;;21.70;100.00
48668;BME280;34453;52.198;5.004;2022-08-19T09:07:43;101576.00;;;21.51;100.00
48668;BME280;34453;52.198;5.004;2022-08-19T09:10:28;101580.19;;;21.67;100.00
48668;BME280;34453;52.198;5.004;2022-08-19T09:15:48;101573.19;;;22.01;100.00
48668;BME280;34453;52.198;5.004;2022-08-19T09:18:16;101574.22;;;22.07;100.00
48668;BME280;34453;52.198;5.004;2022-08-19T09:20:42;101571.50;;;21.93;100.00
48668;BME280;34453;52.198;5.004;2022-08-19T09:23:07;101570.56;;;22.14;100.00
48668;BME280;34453;52.198;5.004;2022-08-19T09:25:33;101567.31;;;22.19;100.00
48668;BME280;34453;52.198;5.004;2022-08-19T09:28:00;101567.78;;;22.43;100.00
48668;BME280;34453;52.198;5.004;2022-08-19T09:30:47;101563.31;;;22.63;100.00
48668;BME280;34453;52.198;5.004;2022-08-19T09:33:12;101562.88;;;22.40;100.00
48668;BME280;34453;52.198;5.004;2022-08-19T09:35:38;101569.88;;;22.67;100.00
48668;BME280;34453;52.198;5.004;2022-08-19T09:38:04;101556.34;;;22.82;100.00
48668;BME280;34453;52.198;5.004;2022-08-19T09:40:30;101543.63;;;22.97;100.00
48668;BME280;34453;52.198;5.004;2022-08-19T09:42:56;101556.97;;;22.71;100.00
48668;BME280;34453;52.198;5.004;2022-08-19T09:45:22;101560.06;;;22.74;100.00
48668;BME280;34453;52.198;5.004;2022-08-19T09:47:52;101559.44;;;22.86;100.00
48668;BME280;34453;52.198;5.004;2022-08-19T09:50:18;101554.31;;;23.11;100.00
48668;BME280;34453;52.198;5.004;2022-08-19T09:52:44;101562.50;;;23.36;100.00
48668;BME280;34453;52.198;5.004;2022-08-19T09:55:10;101559.56;;;23.57;100.00
48668;BME280;34453;52.198;5.004;2022-08-19T09:57:37;101565.06;;;23.69;100.00
48668;BME280;34453;52.198;5.004;2022-08-19T10:00:08;101568.81;;;23.62;100.00
48668;BME280;34453;52.198;5.004;2022-08-19T10:02:34;101554.78;;;23.73;100.00
48668;BME280;34453;52.198;5.004;2022-08-19T10:05:00;101559.50;;;23.84;100.00
48668;BME280;34453;52.198;5.004;2022-08-19T10:07:44;101558.78;;;23.50;100.00
48668;BME280;34453;52.198;5.004;2022-08-19T10:10:10;101557.38;;;23.99;100.00
48668;BME280;34453;52.198;5.004;2022-08-19T10:12:36;101556.72;;;24.11;100.00
48668;BME280;34453;52.198;5.004;2022-08-19T10:15:03;101549.50;;;24.11;100.00
48668;BME280;34453;52.198;5.004;2022-08-19T10:17:29;101539.22;;;24.47;100.00
48668;BME280;34453;52.198;5.004;2022-08-19T10:19:54;101544.91;;;24.64;100.00
48668;BME280;34453;52.198;5.004;2022-08-19T10:22:20;101536.78;;;24.38;100.00
48668;BME280;34453;52.198;5.004;2022-08-19T10:24:46;101539.66;;;24.05;100.00
48668;BME280;34453;52.198;5.004;2022-08-19T10:27:12;101547.44;;;23.62;100.00
48668;BME280;34453;52.198;5.004;2022-08-19T10:29:39;101561.22;;;23.45;100.00
48668;BME280;34453;52.198;5.004;2022-08-19T10:32:06;101549.38;;;23.28;100.00
48668;BME280;34453;52.198;5.004;2022-08-19T10:34:34;101548.56;;;23.01;100.00
48668;BME280;34453;52.198;5.004;2022-08-19T10:37:01;101561.88;;;22.94;100.00
48668;BME280;34453;52.198;5.004;2022-08-19T10:39:31;101565.78;;;22.85;100.00
48668;BME280;34453;52.198;5.004;2022-08-19T10:41:57;101572.34;;;22.82;100.00
48668;BME280;34453;52.198;5.004;2022-08-19T10:44:23;101573.97;;;22.76;100.00
48668;BME280;34453;52.198;5.004;2022-08-19T10:46:50;101570.13;;;22.86;100.00
48668;BME280;34453;52.198;5.004;2022-08-19T10:49:17;101579.31;;;22.83;100.00
48668;BME280;34453;52.198;5.004;2022-08-19T10:51:44;101571.31;;;22.76;100.00
48668;BME280;34453;52.198;5.004;2022-08-19T10:54:28;101566.81;;;22.70;100.00
48668;BME280;34453;52.198;5.004;2022-08-19T10:57:12;101560.06;;;22.81;100.00
48668;BME280;34453;52.198;5.004;2022-08-19T10:59:38;101570.31;;;22.91;100.00
48668;BME280;34453;52.198;5.004;2022-08-19T11:02:06;101569.28;;;22.79;100.00
48668;BME280;34453;52.198;5.004;2022-08-19T11:04:32;101569.50;;;22.77;100.00
48668;BME280;34453;52.198;5.004;2022-08-19T11:06:58;101574.41;;;22.67;100.00
48668;BME280;34453;52.198;5.004;2022-08-19T11:09:25;101574.19;;;22.55;100.00
48668;BME280;34453;52.198;5.004;2022-08-19T11:11:52;101568.63;;;22.50;100.00
48668;BME280;34453;52.198;5.004;2022-08-19T11:14:20;101586.25;;;22.38;100.00
48668;BME280;34453;52.198;5.004;2022-08-19T11:16:49;101593.94;;;22.12;100.00
48668;BME280;34453;52.198;5.004;2022-08-19T11:19:15;101598.97;;;22.01;100.00
48668;BME280;34453;52.198;5.004;2022-08-19T11:21:45;101599.22;;;22.06;100.00
48668;BME280;34453;52.198;5.004;2022-08-19T11:24:18;101599.22;;;22.06;100.00
48668;BME280;34453;52.198;5.004;2022-08-19T11:26:46;101598.81;;;22.09;100.00
48668;BME280;34453;52.198;5.004;2022-08-19T11:29:13;101592.69;;;22.08;100.00
48668;BME280;34453;52.198;5.004;2022-08-19T11:31:44;101600.66;;;22.02;100.00
48668;BME280;34453;52.198;5.004;2022-08-19T11:34:13;101606.97;;;22.01;100.00
48668;BME280;34453;52.198;5.004;2022-08-19T11:36:42;101598.78;;;22.02;100.00
48668;BME280;34453;52.198;5.004;2022-08-19T11:39:11;101599.22;;;22.06;100.00
48668;BME280;34453;52.198;5.004;2022-08-19T11:41:38;101600.69;;;22.15;100.00
48668;BME280;34453;52.198;5.004;2022-08-19T11:44:04;101593.31;;;22.10;100.00
48668;BME280;34453;52.198;5.004;2022-08-19T11:46:33;101591.25;;;22.06;100.00
48668;BME280;34453;52.198;5.004;2022-08-19T11:49:00;101588.63;;;22.19;100.00
48668;BME280;34453;52.198;5.004;2022-08-19T11:51:27;101599.28;;;22.19;100.00
48668;BME280;34453;52.198;5.004;2022-08-19T11:53:54;101605.44;;;22.20;100.00
48668;BME280;34453;52.198;5.004;2022-08-19T11:56:21;101607.53;;;22.31;100.00
48668;BME280;34453;52.198;5.004;2022-08-19T11:58:47;101601.81;;;22.41;100.00
48668;BME280;34453;52.198;5.004;2022-08-19T12:01:16;101596.94;;;22.51;100.00
48668;BME280;34453;52.198;5.004;2022-08-19T12:03:44;101606.38;;;22.53;100.00
48668;BME280;34453;52.198;5.004;2022-08-19T12:06:13;101607.19;;;22.54;100.00
48668;BME280;34453;52.198;5.004;2022-08-19T12:08:40;101605.38;;;22.54;100.00
48668;BME280;34453;52.198;5.004;2022-08-19T12:11:07;101609.66;;;22.49;100.00
48668;BME280;34453;52.198;5.004;2022-08-19T12:13:36;101611.84;;;22.39;100.00
48668;BME280;34453;52.198;5.004;2022-08-19T12:16:14;101618.63;;;22.28;100.00
48668;BME280;34453;52.198;5.004;2022-08-19T12:18:41;101621.50;;;22.33;100.00
48668;BME280;34453;52.198;5.004;2022-08-19T12:21:09;101615.97;;;22.34;100.00
48668;BME280;34453;52.198;5.004;2022-08-19T12:23:36;101607.97;;;22.34;100.00
48668;BME280;34453;52.198;5.004;2022-08-19T12:26:03;101605.06;;;22.29;100.00
48668;BME280;34453;52.198;5.004;2022-08-19T12:28:28;101600.97;;;22.27;100.00
48668;BME280;34453;52.198;5.004;2022-08-19T12:30:56;101608.34;;;22.31;100.00
48668;BME280;34453;52.198;5.004;2022-08-19T12:33:22;101598.53;;;22.39;100.00
48668;BME280;34453;52.198;5.004;2022-08-19T12:35:50;101602.69;;;22.48;100.00
48668;BME280;34453;52.198;5.004;2022-08-19T12:38:16;101600.44;;;22.58;100.00
48668;BME280;34453;52.198;5.004;2022-08-19T12:40:45;101594.50;;;22.69;100.00
48668;BME280;34453;52.198;5.004;2022-08-19T12:43:12;101585.06;;;22.73;100.00
48668;BME280;34453;52.198;5.004;2022-08-19T12:45:39;101584.25;;;22.80;100.00
48668;BME280;34453;52.198;5.004;2022-08-19T12:48:04;101578.94;;;22.93;100.00
48668;BME280;34453;52.198;5.004;2022-08-19T12:50:30;101556.38;;;23.09;100.00
48668;BME280;34453;52.198;5.004;2022-08-19T12:52:56;101565.97;;;23.30;100.00